createdAt,value
2023-05-14T00:13:47.070Z,28.98
2023-05-14T00:18:49.873Z,31.15
2023-05-14T01:11:41.421Z,24.88
2023-05-14T06:03:33.116Z,48.88
2023-05-14T09:25:17.629Z,20.02
2023-05-14T09:47:55.833Z,24.73
2023-05-14T09:53:00.345Z,21.95
2023-05-14T09:58:02.976Z,23.05
2023-05-14T10:03:07.276Z,21.73
2023-05-14T10:08:24.670Z,18.38
2023-05-14T10:13:32.877Z,16.15
2023-05-14T10:18:41.719Z,19.13
2023-05-14T10:23:46.550Z,19.70
2023-05-14T10:28:49.172Z,15.23
2023-05-14T10:33:52.307Z,12.30
2023-05-14T10:38:57.756Z,13.32
2023-05-14T10:44:07.545Z,18.50
2023-05-14T10:49:28.878Z,14.50
2023-05-14T10:54:39.843Z,16.70
2023-05-14T11:00:17.178Z,16.70
2023-05-14T11:05:29.737Z,12.43
2023-05-14T11:11:09.802Z,14.53
2023-05-14T11:16:23.277Z,14.27
2023-05-14T11:21:27.503Z,13.85
2023-05-14T11:26:33.501Z,16.00
2023-05-14T11:31:37.818Z,14.50
2023-05-14T11:36:44.450Z,14.32
2023-05-14T11:41:47.106Z,11.85
2023-05-14T11:53:12.513Z,13.15
2023-05-14T11:58:21.478Z,15.73
2023-05-14T12:03:30.026Z,19.98
2023-05-14T12:08:38.053Z,14.80
2023-05-14T12:13:42.461Z,14.82
2023-05-14T12:18:51.843Z,16.33
2023-05-14T12:24:00.505Z,14.15
2023-05-14T12:29:05.649Z,13.85
2023-05-14T12:39:37.322Z,19.92
2023-05-14T12:44:43.808Z,20.23
2023-05-14T12:55:17.464Z,16.85
2023-05-14T13:00:20.797Z,16.60
2023-05-14T13:05:24.678Z,26.63
2023-05-14T13:10:30.000Z,16.08
2023-05-14T13:15:43.441Z,16.30
2023-05-14T13:21:12.148Z,12.60
2023-05-14T13:26:32.573Z,9.10
2023-05-14T13:31:42.730Z,9.98
2023-05-14T13:36:59.033Z,9.38
2023-05-14T13:42:32.838Z,6.85
2023-05-14T13:47:37.451Z,6.07
2023-05-14T13:52:41.054Z,6.40
2023-05-14T13:57:44.158Z,6.82
2023-05-14T14:02:49.294Z,6.03
2023-05-14T14:08:04.374Z,4.63
2023-05-14T14:13:15.506Z,7.55
2023-05-14T14:18:18.833Z,7.43
2023-05-14T14:23:24.926Z,7.22
2023-05-14T14:28:27.980Z,4.55
2023-05-14T14:33:30.078Z,3.88
2023-05-14T14:38:32.370Z,6.75
2023-05-14T14:43:34.691Z,3.65
2023-05-14T14:48:39.269Z,3.30
2023-05-14T14:53:41.667Z,5.10
2023-05-14T14:58:45.454Z,3.67
2023-05-14T15:03:48.481Z,2.95
2023-05-14T15:08:50.851Z,5.00
2023-05-14T15:13:53.131Z,7.03
2023-05-14T15:18:55.553Z,5.38
2023-05-14T15:23:58.016Z,3.55
2023-05-14T15:29:00.528Z,5.72
2023-05-14T15:34:03.725Z,3.40
2023-05-14T15:39:10.434Z,7.85
2023-05-14T15:44:13.152Z,5.90
2023-05-14T15:49:15.728Z,9.20
2023-05-14T15:54:18.344Z,3.83
2023-05-14T15:59:21.578Z,4.57
2023-05-14T16:04:23.999Z,4.03
2023-05-14T16:09:26.883Z,3.03
2023-05-14T16:14:29.180Z,3.60
2023-05-14T16:19:31.596Z,3.22
2023-05-14T16:24:34.031Z,4.70
2023-05-14T16:29:37.419Z,4.05
2023-05-14T16:34:40.760Z,2.85
2023-05-14T16:39:43.907Z,3.70
2023-05-14T16:44:46.687Z,3.58
2023-05-14T16:49:48.947Z,8.65
2023-05-14T16:54:51.668Z,21.08
2023-05-14T16:59:54.633Z,4.93
2023-05-14T17:05:04.526Z,4.00
2023-05-14T17:10:08.500Z,5.10
2023-05-14T17:15:12.107Z,5.68
2023-05-14T17:20:16.910Z,4.85
2023-05-14T17:25:20.931Z,6.90
2023-05-14T17:30:25.455Z,7.30
2023-05-14T17:35:38.336Z,6.95
2023-05-14T17:40:41.821Z,10.18
2023-05-14T17:46:01.601Z,4.47
2023-05-14T17:51:08.804Z,4.18
2023-05-14T17:56:19.780Z,10.77
2023-05-14T18:06:32.955Z,5.95
2023-05-14T18:11:39.055Z,8.30
2023-05-14T18:16:46.225Z,9.93
2023-05-14T18:21:55.102Z,11.90
2023-05-14T18:26:58.274Z,16.88
2023-05-14T18:32:17.210Z,10.10
2023-05-14T18:37:26.480Z,12.57
2023-05-14T18:42:45.495Z,10.43
2023-05-14T18:48:07.263Z,19.67
2023-05-14T18:53:18.490Z,7.43
2023-05-14T18:58:32.040Z,13.88
2023-05-14T19:04:17.132Z,11.75
2023-05-14T19:09:26.768Z,11.10
2023-05-14T19:14:31.775Z,10.65
2023-05-14T19:19:38.511Z,15.00
2023-05-14T19:25:09.342Z,13.18
2023-05-14T19:30:24.549Z,10.45
2023-05-14T19:41:00.123Z,9.77
2023-05-14T19:46:17.627Z,9.00
2023-05-14T19:51:28.433Z,13.18
2023-05-14T19:56:44.787Z,9.23
2023-05-14T20:01:49.935Z,8.80
2023-05-14T20:07:12.252Z,12.40
2023-05-14T20:12:37.123Z,8.77
2023-05-14T20:18:29.796Z,11.18
2023-05-14T20:23:40.576Z,9.38
2023-05-14T20:34:36.695Z,10.13
2023-05-14T20:45:42.292Z,9.27
2023-05-14T20:51:09.036Z,7.63
2023-05-14T21:01:44.999Z,10.88
2023-05-14T21:07:10.547Z,10.63
2023-05-14T21:17:44.045Z,8.77
2023-05-14T21:59:12.374Z,11.75
2023-05-14T22:16:40.174Z,12.00
2023-05-14T22:33:16.680Z,11.07
2023-05-14T22:38:26.753Z,9.93
2023-05-14T22:43:43.963Z,10.80
2023-05-14T22:48:49.588Z,5.85
2023-05-14T23:11:01.584Z,7.47
2023-05-14T23:54:50.625Z,10.30
